Nail, Arkansas
Current Conditions -  °F | °C
As of 1:53 PM on Saturday 25 Oct 2014 (Local Time) from KHRO Reporting Station
Clear Clear  
Wind Chill: 83°   Ceiling: Unl
Heat Index: 84°   Visibility: 10mi
Dew Point: 62°   Wind: 6mph
Humidity: 49%   Direction: NA
Pressure: 30.07"   Gusts: NA
Location:  35.8413°N, 93.3507°W
Report Text: KHRO 251853Z AUTO VRB05KT 10SM CLR 28/17 A3007 RMK AO2 SLP170 T02830167
Loading
Personal Weather Stations






























Interactive Weather Map
Tropical Storm Tracking
New forecast layout! Learn more

10-Day Weather Forecast

Advertisements
Track Severe Weather on mobile